createdAt,value
2023-05-22T00:04:31.406Z,23.73
2023-05-22T00:09:33.494Z,24.60
2023-05-22T00:14:35.668Z,23.40
2023-05-22T00:19:38.187Z,26.05
2023-05-22T00:24:40.501Z,24.55
2023-05-22T00:29:42.609Z,24.95
2023-05-22T00:34:44.872Z,29.38
2023-05-22T00:39:47.347Z,22.70
2023-05-22T00:44:49.871Z,34.30
2023-05-22T00:49:52.126Z,23.83
2023-05-22T00:54:54.359Z,24.42
2023-05-22T00:59:56.561Z,19.35
2023-05-22T01:04:59.137Z,27.17
2023-05-22T01:10:01.417Z,30.60
2023-05-22T01:15:12.580Z,20.48
2023-05-22T01:20:38.472Z,25.33
2023-05-22T01:26:07.965Z,30.63
2023-05-22T01:31:13.244Z,29.48
2023-05-22T01:36:20.225Z,29.00
2023-05-22T01:41:22.714Z,34.58
2023-05-22T01:46:26.867Z,29.70
2023-05-22T01:51:50.803Z,30.38
2023-05-22T01:57:18.823Z,27.55
2023-05-22T02:02:23.296Z,26.42
2023-05-22T02:07:26.269Z,30.85
2023-05-22T02:12:28.727Z,32.35
2023-05-22T02:17:30.913Z,35.97
2023-05-22T02:22:33.044Z,24.73
2023-05-22T02:27:35.310Z,32.90
2023-05-22T02:32:38.462Z,33.10
2023-05-22T02:37:40.991Z,34.17
2023-05-22T02:42:43.507Z,29.60
2023-05-22T02:47:46.981Z,34.80
2023-05-22T02:52:50.506Z,33.65
2023-05-22T02:57:52.678Z,33.40
2023-05-22T03:02:54.929Z,32.63
2023-05-22T03:07:58.030Z,36.53
2023-05-22T03:13:00.737Z,30.17
2023-05-22T03:18:03.014Z,29.40
2023-05-22T03:23:05.461Z,30.40
2023-05-22T03:28:07.668Z,29.98
2023-05-22T03:33:14.556Z,29.15
2023-05-22T03:38:16.856Z,35.28
2023-05-22T03:43:19.068Z,22.50
2023-05-22T03:48:21.376Z,31.20
2023-05-22T03:53:23.592Z,19.05
2023-05-22T03:58:26.216Z,30.75
2023-05-22T04:03:28.671Z,38.83
2023-05-22T04:08:31.067Z,42.88
2023-05-22T04:13:35.432Z,42.28
2023-05-22T04:18:37.815Z,39.15
2023-05-22T04:23:43.272Z,43.63
2023-05-22T04:28:46.040Z,37.17
2023-05-22T04:33:49.848Z,44.60
2023-05-22T04:38:52.719Z,39.97
2023-05-22T04:43:54.995Z,44.75
2023-05-22T04:49:01.987Z,40.15
2023-05-22T04:54:04.564Z,39.45
2023-05-22T04:59:09.133Z,46.08
2023-05-22T05:04:13.083Z,44.33
2023-05-22T05:09:15.372Z,52.20
2023-05-22T05:14:17.732Z,52.95
2023-05-22T05:19:22.964Z,52.75
2023-05-22T05:24:25.502Z,55.08
2023-05-22T05:29:27.813Z,63.15
2023-05-22T05:34:35.642Z,65.55
2023-05-22T05:39:39.448Z,76.85
2023-05-22T05:44:43.596Z,74.22
2023-05-22T05:49:47.241Z,71.65
2023-05-22T05:54:51.854Z,67.05
2023-05-22T05:59:56.934Z,68.30
2023-05-22T06:05:19.158Z,67.30
2023-05-22T06:10:24.850Z,63.42
2023-05-22T06:15:34.494Z,58.97
2023-05-22T06:20:36.721Z,84.20
2023-05-22T06:25:39.895Z,64.60
2023-05-22T06:30:42.175Z,58.75
2023-05-22T06:35:48.798Z,69.05
2023-05-22T06:40:51.844Z,68.60
2023-05-22T06:46:00.380Z,71.88
2023-05-22T06:51:05.474Z,56.33
2023-05-22T06:56:07.901Z,68.57
2023-05-22T07:01:23.937Z,73.55
2023-05-22T07:06:41.763Z,65.93
2023-05-22T07:11:46.557Z,68.18
2023-05-22T07:16:51.255Z,77.30
2023-05-22T07:22:00.598Z,59.65
2023-05-22T07:27:04.441Z,74.78
2023-05-22T07:32:08.457Z,76.72
2023-05-22T07:37:12.909Z,67.65
2023-05-22T07:42:16.160Z,72.35
2023-05-22T07:47:25.019Z,78.53
2023-05-22T07:52:27.415Z,65.63
2023-05-22T07:57:29.936Z,68.10
2023-05-22T08:02:36.532Z,60.80
2023-05-22T08:07:38.888Z,47.58
2023-05-22T08:12:41.013Z,54.00
2023-05-22T08:17:43.112Z,59.45
2023-05-22T08:22:45.193Z,56.72
2023-05-22T08:27:47.364Z,49.88
2023-05-22T08:32:49.539Z,37.25
2023-05-22T08:37:52.880Z,51.05
2023-05-22T08:42:57.472Z,43.33
2023-05-22T08:48:07.989Z,47.42
2023-05-22T08:53:13.436Z,52.15
2023-05-22T08:58:16.946Z,41.70
2023-05-22T09:03:21.682Z,43.25
2023-05-22T09:08:24.093Z,40.42
2023-05-22T09:13:29.125Z,39.72
2023-05-22T09:18:32.032Z,32.25
2023-05-22T09:23:34.277Z,36.03
2023-05-22T09:28:37.169Z,34.83
2023-05-22T09:33:39.333Z,38.92
2023-05-22T09:38:41.805Z,38.72
2023-05-22T09:43:50.742Z,34.03
2023-05-22T09:48:53.851Z,34.00
2023-05-22T09:54:03.491Z,36.83
2023-05-22T09:59:09.524Z,35.33
2023-05-22T10:04:16.410Z,28.23
2023-05-22T10:09:23.944Z,24.90
2023-05-22T10:14:27.359Z,32.28
2023-05-22T10:19:32.790Z,27.45
2023-05-22T10:24:35.706Z,33.10
2023-05-22T10:29:45.450Z,37.47
2023-05-22T10:34:50.320Z,30.73
2023-05-22T10:39:54.798Z,32.38
2023-05-22T10:44:56.872Z,31.60
2023-05-22T10:50:07.315Z,32.00
2023-05-22T10:55:11.140Z,31.05
2023-05-22T11:00:16.361Z,30.25
2023-05-22T11:05:22.065Z,27.23
2023-05-22T11:10:27.401Z,29.65
2023-05-22T11:15:32.417Z,23.95
2023-05-22T11:20:37.857Z,26.50
2023-05-22T11:25:41.125Z,29.48
2023-05-22T11:30:43.799Z,28.00
2023-05-22T11:35:47.849Z,23.17
2023-05-22T11:40:51.939Z,25.60
2023-05-22T11:45:54.234Z,28.98
2023-05-22T11:50:56.712Z,32.63
2023-05-22T11:56:03.417Z,30.25
2023-05-22T12:01:06.368Z,30.50
2023-05-22T12:06:09.527Z,29.63
2023-05-22T12:11:12.220Z,19.50
2023-05-22T12:16:19.658Z,21.50
2023-05-22T12:21:21.899Z,23.30
2023-05-22T12:26:24.013Z,22.85
2023-05-22T12:31:26.623Z,25.75
2023-05-22T12:36:39.625Z,28.60
2023-05-22T12:41:42.011Z,20.85
2023-05-22T12:46:44.782Z,29.75
2023-05-22T12:51:47.235Z,25.17
2023-05-22T12:56:49.312Z,28.33
2023-05-22T13:01:51.870Z,33.42
2023-05-22T13:06:54.105Z,20.00
2023-05-22T13:11:56.475Z,24.85
2023-05-22T13:16:58.794Z,28.40
2023-05-22T13:22:00.925Z,24.63
2023-05-22T13:27:03.319Z,28.77
2023-05-22T13:32:05.968Z,30.92
2023-05-22T13:37:08.895Z,22.75
2023-05-22T13:42:11.171Z,20.60
2023-05-22T13:47:13.396Z,20.92
2023-05-22T13:52:15.545Z,20.90
2023-05-22T13:57:17.869Z,28.55
2023-05-22T14:02:20.847Z,26.88
2023-05-22T14:07:23.933Z,32.72
2023-05-22T14:12:26.074Z,29.25
2023-05-22T14:17:28.732Z,26.65
2023-05-22T14:22:36.088Z,26.48
2023-05-22T14:27:43.680Z,31.48
2023-05-22T14:32:46.721Z,24.40
2023-05-22T14:37:49.056Z,27.08
2023-05-22T14:42:53.282Z,27.30
2023-05-22T14:47:56.510Z,28.17
2023-05-22T14:52:58.650Z,27.83
2023-05-22T14:58:00.880Z,22.30
2023-05-22T15:03:03.838Z,23.42
2023-05-22T15:08:06.165Z,24.52
2023-05-22T15:13:08.276Z,26.73
2023-05-22T15:18:10.588Z,26.30
2023-05-22T15:23:12.727Z,23.67
2023-05-22T15:28:14.939Z,29.75
2023-05-22T15:33:17.138Z,27.08
2023-05-22T15:38:20.039Z,24.92
2023-05-22T15:43:24.299Z,26.45
2023-05-22T15:48:28.376Z,22.42
2023-05-22T15:53:30.722Z,22.20
2023-05-22T15:58:33.126Z,23.42
2023-05-22T16:03:35.413Z,26.15
2023-05-22T16:08:37.833Z,18.30
2023-05-22T16:13:40.047Z,21.10
2023-05-22T16:18:42.285Z,21.73
2023-05-22T16:23:44.591Z,16.33
2023-05-22T16:28:46.826Z,14.77
2023-05-22T16:33:48.997Z,13.43
2023-05-22T16:38:51.061Z,18.30
2023-05-22T16:43:53.618Z,14.02
2023-05-22T16:48:55.995Z,11.63
2023-05-22T16:53:58.260Z,10.13
2023-05-22T16:59:00.925Z,9.20
2023-05-22T17:04:03.222Z,8.15
2023-05-22T17:09:05.531Z,8.07
2023-05-22T17:14:07.661Z,6.38
2023-05-22T17:19:09.890Z,8.55
2023-05-22T17:24:14.736Z,7.35
2023-05-22T17:29:17.123Z,6.80
2023-05-22T17:34:19.302Z,6.97
2023-05-22T17:39:21.842Z,6.60
2023-05-22T17:44:24.073Z,8.15
2023-05-22T17:49:26.379Z,7.90
2023-05-22T17:54:34.267Z,8.02
2023-05-22T17:59:38.450Z,9.52
2023-05-22T18:04:42.110Z,5.35
2023-05-22T18:09:44.434Z,6.45
2023-05-22T18:14:46.766Z,7.05
2023-05-22T18:19:48.954Z,5.63
2023-05-22T18:24:51.330Z,6.25
2023-05-22T18:29:55.284Z,9.05
2023-05-22T18:35:00.118Z,7.25
2023-05-22T18:40:03.359Z,10.15
2023-05-22T18:45:06.953Z,9.80
2023-05-22T18:50:09.637Z,9.80
2023-05-22T18:55:12.317Z,8.23
2023-05-22T19:00:14.915Z,9.25
2023-05-22T19:05:17.122Z,7.47
2023-05-22T19:10:19.206Z,12.40
2023-05-22T19:15:21.374Z,11.52
2023-05-22T19:20:27.107Z,11.60
2023-05-22T19:25:29.383Z,13.30
2023-05-22T19:30:31.503Z,9.88
2023-05-22T19:35:33.706Z,14.00
2023-05-22T19:40:36.312Z,12.55
2023-05-22T19:45:38.530Z,12.05
2023-05-22T19:50:41.265Z,11.15
2023-05-22T19:55:43.755Z,11.98
2023-05-22T20:00:47.577Z,11.23
2023-05-22T20:05:53.338Z,12.18
2023-05-22T20:10:55.439Z,18.30
2023-05-22T20:15:57.587Z,14.23
2023-05-22T20:20:59.826Z,16.15
2023-05-22T20:26:02.614Z,14.55
2023-05-22T20:31:05.977Z,16.10
2023-05-22T20:36:08.641Z,18.90
2023-05-22T20:41:12.800Z,17.02
2023-05-22T20:46:15.077Z,20.35
2023-05-22T20:51:20.714Z,17.70
2023-05-22T20:56:23.059Z,16.92
2023-05-22T21:01:25.403Z,18.08
2023-05-22T21:06:27.701Z,19.33
2023-05-22T21:11:29.863Z,18.38
2023-05-22T21:16:32.548Z,16.58
2023-05-22T21:21:36.266Z,19.92
2023-05-22T21:26:38.502Z,26.13
2023-05-22T21:31:40.979Z,25.08
2023-05-22T21:36:44.024Z,31.95
2023-05-22T21:41:47.551Z,32.28
2023-05-22T21:46:50.781Z,35.70
2023-05-22T21:51:52.959Z,34.80
2023-05-22T21:56:55.005Z,32.20
2023-05-22T22:01:57.858Z,25.73
2023-05-22T22:07:00.004Z,29.30
2023-05-22T22:12:02.255Z,32.58
2023-05-22T22:17:05.973Z,31.85
2023-05-22T22:22:12.307Z,29.70
2023-05-22T22:27:14.373Z,30.92
2023-05-22T22:32:16.662Z,29.00
2023-05-22T22:37:19.376Z,31.60
2023-05-22T22:42:21.489Z,24.27
2023-05-22T22:47:23.662Z,28.92
2023-05-22T22:52:25.992Z,31.58
2023-05-22T22:57:28.320Z,29.38
2023-05-22T23:02:30.601Z,31.95
2023-05-22T23:07:32.744Z,30.30
2023-05-22T23:12:36.182Z,27.75
2023-05-22T23:17:38.582Z,26.48
2023-05-22T23:22:40.900Z,25.30
2023-05-22T23:27:43.327Z,26.40
2023-05-22T23:32:45.599Z,29.15
2023-05-22T23:37:47.759Z,28.05
2023-05-22T23:42:50.859Z,28.00
2023-05-22T23:47:53.036Z,28.45
2023-05-22T23:52:55.119Z,27.38
2023-05-22T23:57:57.228Z,27.83
